sensor_id;sensor_type;location;lat;lon;timestamp;P1;durP1;ratioP1;P2;durP2;ratioP2
31037;SDS011;17702;47.590;7.666;2023-06-22T00:00:57;70.93;;;38.13;;
31037;SDS011;17702;47.590;7.666;2023-06-22T00:03:23;234.32;;;157.52;;
31037;SDS011;17702;47.590;7.666;2023-06-22T00:05:50;232.00;;;156.82;;
31037;SDS011;17702;47.590;7.666;2023-06-22T00:08:16;28.40;;;15.07;;
31037;SDS011;17702;47.590;7.666;2023-06-22T00:10:43;16.77;;;8.13;;
31037;SDS011;17702;47.590;7.666;2023-06-22T00:13:09;20.10;;;8.27;;
31037;SDS011;17702;47.590;7.666;2023-06-22T00:15:36;26.88;;;8.75;;
31037;SDS011;17702;47.590;7.666;2023-06-22T00:18:03;18.48;;;9.63;;
31037;SDS011;17702;47.590;7.666;2023-06-22T00:20:30;16.70;;;8.93;;
31037;SDS011;17702;47.590;7.666;2023-06-22T00:22:56;24.85;;;9.10;;
31037;SDS011;17702;47.590;7.666;2023-06-22T00:25:22;16.80;;;8.05;;
31037;SDS011;17702;47.590;7.666;2023-06-22T00:27:48;18.05;;;9.32;;
31037;SDS011;17702;47.590;7.666;2023-06-22T00:30:17;35.47;;;9.68;;
31037;SDS011;17702;47.590;7.666;2023-06-22T00:32:44;45.83;;;10.10;;
31037;SDS011;17702;47.590;7.666;2023-06-22T00:35:11;37.75;;;10.40;;
31037;SDS011;17702;47.590;7.666;2023-06-22T00:37:37;33.35;;;9.25;;
31037;SDS011;17702;47.590;7.666;2023-06-22T00:40:07;25.92;;;9.60;;
31037;SDS011;17702;47.590;7.666;2023-06-22T00:42:37;31.45;;;9.75;;
31037;SDS011;17702;47.590;7.666;2023-06-22T00:45:04;43.40;;;12.13;;
31037;SDS011;17702;47.590;7.666;2023-06-22T00:47:30;24.02;;;10.43;;
31037;SDS011;17702;47.590;7.666;2023-06-22T00:49:57;37.58;;;12.13;;
31037;SDS011;17702;47.590;7.666;2023-06-22T00:52:23;32.63;;;10.75;;
31037;SDS011;17702;47.590;7.666;2023-06-22T00:54:52;26.52;;;10.45;;
31037;SDS011;17702;47.590;7.666;2023-06-22T00:57:18;24.83;;;11.77;;
31037;SDS011;17702;47.590;7.666;2023-06-22T00:59:45;25.23;;;10.82;;
31037;SDS011;17702;47.590;7.666;2023-06-22T01:02:12;21.20;;;10.98;;
31037;SDS011;17702;47.590;7.666;2023-06-22T01:04:38;31.33;;;10.45;;
31037;SDS011;17702;47.590;7.666;2023-06-22T01:07:21;25.52;;;10.20;;
31037;SDS011;17702;47.590;7.666;2023-06-22T01:12:48;33.10;;;12.57;;
31037;SDS011;17702;47.590;7.666;2023-06-22T01:18:39;38.78;;;16.42;;
31037;SDS011;17702;47.590;7.666;2023-06-22T01:21:07;35.70;;;14.23;;
31037;SDS011;17702;47.590;7.666;2023-06-22T01:23:42;31.58;;;14.93;;
31037;SDS011;17702;47.590;7.666;2023-06-22T01:28:59;51.58;;;14.23;;
31037;SDS011;17702;47.590;7.666;2023-06-22T01:31:29;51.85;;;13.88;;
31037;SDS011;17702;47.590;7.666;2023-06-22T01:33:57;30.35;;;13.82;;
31037;SDS011;17702;47.590;7.666;2023-06-22T01:36:25;33.10;;;13.25;;
31037;SDS011;17702;47.590;7.666;2023-06-22T01:38:52;30.20;;;12.10;;
31037;SDS011;17702;47.590;7.666;2023-06-22T01:41:19;28.15;;;12.35;;
31037;SDS011;17702;47.590;7.666;2023-06-22T01:43:45;27.30;;;12.70;;
31037;SDS011;17702;47.590;7.666;2023-06-22T01:46:13;22.83;;;11.85;;
31037;SDS011;17702;47.590;7.666;2023-06-22T01:48:39;27.33;;;12.05;;
31037;SDS011;17702;47.590;7.666;2023-06-22T01:51:05;36.78;;;12.48;;
31037;SDS011;17702;47.590;7.666;2023-06-22T01:53:31;27.17;;;11.38;;
31037;SDS011;17702;47.590;7.666;2023-06-22T01:55:57;36.63;;;13.07;;
31037;SDS011;17702;47.590;7.666;2023-06-22T01:58:23;40.25;;;13.23;;
31037;SDS011;17702;47.590;7.666;2023-06-22T02:01:00;35.22;;;12.95;;
31037;SDS011;17702;47.590;7.666;2023-06-22T02:03:43;32.50;;;13.43;;
31037;SDS011;17702;47.590;7.666;2023-06-22T02:06:23;45.70;;;13.88;;
31037;SDS011;17702;47.590;7.666;2023-06-22T02:08:55;38.25;;;12.45;;
31037;SDS011;17702;47.590;7.666;2023-06-22T02:11:24;37.22;;;14.25;;
31037;SDS011;17702;47.590;7.666;2023-06-22T02:13:52;32.97;;;13.32;;
31037;SDS011;17702;47.590;7.666;2023-06-22T02:16:20;33.95;;;12.68;;
31037;SDS011;17702;47.590;7.666;2023-06-22T02:18:49;28.55;;;12.07;;
31037;SDS011;17702;47.590;7.666;2023-06-22T02:21:16;18.40;;;11.82;;
31037;SDS011;17702;47.590;7.666;2023-06-22T02:23:42;35.63;;;12.20;;
31037;SDS011;17702;47.590;7.666;2023-06-22T02:26:07;35.42;;;12.65;;
31037;SDS011;17702;47.590;7.666;2023-06-22T02:28:33;35.22;;;11.90;;
31037;SDS011;17702;47.590;7.666;2023-06-22T02:30:59;27.13;;;11.27;;
31037;SDS011;17702;47.590;7.666;2023-06-22T02:33:25;23.25;;;10.88;;
31037;SDS011;17702;47.590;7.666;2023-06-22T02:35:50;24.60;;;10.85;;
31037;SDS011;17702;47.590;7.666;2023-06-22T02:38:16;19.00;;;10.18;;
31037;SDS011;17702;47.590;7.666;2023-06-22T02:40:42;28.60;;;10.65;;
31037;SDS011;17702;47.590;7.666;2023-06-22T02:43:08;25.50;;;10.23;;
31037;SDS011;17702;47.590;7.666;2023-06-22T02:45:33;22.13;;;10.02;;
31037;SDS011;17702;47.590;7.666;2023-06-22T02:47:59;21.83;;;9.55;;
31037;SDS011;17702;47.590;7.666;2023-06-22T02:50:25;24.92;;;10.18;;
31037;SDS011;17702;47.590;7.666;2023-06-22T02:52:50;20.30;;;10.23;;
31037;SDS011;17702;47.590;7.666;2023-06-22T02:55:16;34.33;;;12.00;;
31037;SDS011;17702;47.590;7.666;2023-06-22T02:57:41;29.38;;;11.68;;
31037;SDS011;17702;47.590;7.666;2023-06-22T03:00:10;18.30;;;10.48;;
31037;SDS011;17702;47.590;7.666;2023-06-22T03:02:45;26.33;;;10.68;;
31037;SDS011;17702;47.590;7.666;2023-06-22T03:05:12;27.15;;;11.18;;
31037;SDS011;17702;47.590;7.666;2023-06-22T03:07:42;23.98;;;10.57;;
31037;SDS011;17702;47.590;7.666;2023-06-22T03:10:08;19.05;;;10.18;;
31037;SDS011;17702;47.590;7.666;2023-06-22T03:12:34;23.08;;;10.20;;
31037;SDS011;17702;47.590;7.666;2023-06-22T03:15:00;25.17;;;9.50;;
31037;SDS011;17702;47.590;7.666;2023-06-22T03:17:26;29.05;;;10.20;;
31037;SDS011;17702;47.590;7.666;2023-06-22T03:19:52;27.92;;;10.50;;
31037;SDS011;17702;47.590;7.666;2023-06-22T03:22:17;36.78;;;11.05;;
31037;SDS011;17702;47.590;7.666;2023-06-22T03:24:43;32.55;;;10.88;;
31037;SDS011;17702;47.590;7.666;2023-06-22T03:27:08;22.17;;;10.23;;
31037;SDS011;17702;47.590;7.666;2023-06-22T03:29:34;19.40;;;10.30;;
31037;SDS011;17702;47.590;7.666;2023-06-22T03:31:59;24.95;;;10.95;;
31037;SDS011;17702;47.590;7.666;2023-06-22T03:34:25;20.35;;;11.30;;
31037;SDS011;17702;47.590;7.666;2023-06-22T03:36:51;27.70;;;10.95;;
31037;SDS011;17702;47.590;7.666;2023-06-22T03:39:16;21.23;;;10.93;;
31037;SDS011;17702;47.590;7.666;2023-06-22T03:41:42;24.60;;;10.20;;
31037;SDS011;17702;47.590;7.666;2023-06-22T03:44:07;24.00;;;9.52;;
31037;SDS011;17702;47.590;7.666;2023-06-22T03:46:37;19.65;;;9.77;;
31037;SDS011;17702;47.590;7.666;2023-06-22T03:49:02;21.13;;;9.20;;
31037;SDS011;17702;47.590;7.666;2023-06-22T03:51:28;19.40;;;8.70;;
31037;SDS011;17702;47.590;7.666;2023-06-22T03:53:54;22.20;;;9.55;;
31037;SDS011;17702;47.590;7.666;2023-06-22T03:56:20;22.77;;;9.15;;
31037;SDS011;17702;47.590;7.666;2023-06-22T03:58:45;28.52;;;8.57;;
31037;SDS011;17702;47.590;7.666;2023-06-22T04:01:11;22.48;;;8.85;;
31037;SDS011;17702;47.590;7.666;2023-06-22T04:03:40;31.73;;;8.43;;
31037;SDS011;17702;47.590;7.666;2023-06-22T04:06:06;20.70;;;7.63;;
31037;SDS011;17702;47.590;7.666;2023-06-22T04:08:32;13.90;;;8.05;;
31037;SDS011;17702;47.590;7.666;2023-06-22T04:10:57;22.20;;;8.30;;
31037;SDS011;17702;47.590;7.666;2023-06-22T04:13:23;23.27;;;8.98;;
31037;SDS011;17702;47.590;7.666;2023-06-22T04:15:48;22.95;;;8.23;;
31037;SDS011;17702;47.590;7.666;2023-06-22T04:18:14;26.60;;;8.95;;
31037;SDS011;17702;47.590;7.666;2023-06-22T04:20:40;20.20;;;8.40;;
31037;SDS011;17702;47.590;7.666;2023-06-22T04:23:05;16.80;;;9.45;;
31037;SDS011;17702;47.590;7.666;2023-06-22T04:25:31;16.38;;;8.10;;
31037;SDS011;17702;47.590;7.666;2023-06-22T04:27:56;20.33;;;7.70;;
31037;SDS011;17702;47.590;7.666;2023-06-22T04:30:22;22.52;;;8.45;;
31037;SDS011;17702;47.590;7.666;2023-06-22T04:32:48;20.80;;;8.65;;
31037;SDS011;17702;47.590;7.666;2023-06-22T04:35:21;22.20;;;8.80;;
31037;SDS011;17702;47.590;7.666;2023-06-22T04:37:47;20.35;;;8.10;;
31037;SDS011;17702;47.590;7.666;2023-06-22T04:40:14;17.25;;;8.10;;
31037;SDS011;17702;47.590;7.666;2023-06-22T04:42:40;19.25;;;8.23;;
31037;SDS011;17702;47.590;7.666;2023-06-22T04:45:17;19.27;;;8.10;;
31037;SDS011;17702;47.590;7.666;2023-06-22T04:47:43;19.40;;;9.35;;
31037;SDS011;17702;47.590;7.666;2023-06-22T04:50:11;24.50;;;8.98;;
31037;SDS011;17702;47.590;7.666;2023-06-22T04:52:37;23.55;;;9.35;;
31037;SDS011;17702;47.590;7.666;2023-06-22T04:55:03;15.07;;;8.55;;
31037;SDS011;17702;47.590;7.666;2023-06-22T04:57:29;28.13;;;8.48;;
31037;SDS011;17702;47.590;7.666;2023-06-22T04:59:58;20.73;;;8.00;;
31037;SDS011;17702;47.590;7.666;2023-06-22T05:02:36;17.95;;;8.80;;
31037;SDS011;17702;47.590;7.666;2023-06-22T05:05:02;12.68;;;8.18;;
31037;SDS011;17702;47.590;7.666;2023-06-22T05:07:32;22.48;;;9.05;;
31037;SDS011;17702;47.590;7.666;2023-06-22T05:10:01;16.77;;;9.25;;
31037;SDS011;17702;47.590;7.666;2023-06-22T05:12:28;21.58;;;8.82;;
31037;SDS011;17702;47.590;7.666;2023-06-22T05:14:54;21.50;;;9.77;;
31037;SDS011;17702;47.590;7.666;2023-06-22T05:17:20;13.18;;;8.15;;
31037;SDS011;17702;47.590;7.666;2023-06-22T05:19:46;13.95;;;8.93;;
31037;SDS011;17702;47.590;7.666;2023-06-22T05:22:14;13.82;;;8.65;;
31037;SDS011;17702;47.590;7.666;2023-06-22T05:24:41;19.75;;;10.13;;
31037;SDS011;17702;47.590;7.666;2023-06-22T05:27:07;15.52;;;8.27;;
31037;SDS011;17702;47.590;7.666;2023-06-22T05:29:33;16.98;;;9.32;;
31037;SDS011;17702;47.590;7.666;2023-06-22T05:32:00;17.60;;;9.25;;
31037;SDS011;17702;47.590;7.666;2023-06-22T05:34:26;12.00;;;7.93;;
31037;SDS011;17702;47.590;7.666;2023-06-22T05:36:51;15.13;;;8.75;;
31037;SDS011;17702;47.590;7.666;2023-06-22T05:39:17;17.58;;;9.48;;
31037;SDS011;17702;47.590;7.666;2023-06-22T05:41:42;26.38;;;9.63;;
31037;SDS011;17702;47.590;7.666;2023-06-22T05:44:09;16.25;;;8.65;;
31037;SDS011;17702;47.590;7.666;2023-06-22T05:46:35;9.90;;;8.27;;
31037;SDS011;17702;47.590;7.666;2023-06-22T05:49:01;19.40;;;8.88;;
31037;SDS011;17702;47.590;7.666;2023-06-22T05:51:26;16.67;;;9.60;;
31037;SDS011;17702;47.590;7.666;2023-06-22T05:53:52;20.13;;;9.80;;
31037;SDS011;17702;47.590;7.666;2023-06-22T05:56:17;17.55;;;10.07;;
31037;SDS011;17702;47.590;7.666;2023-06-22T05:58:44;19.85;;;9.02;;
31037;SDS011;17702;47.590;7.666;2023-06-22T06:01:10;15.38;;;9.55;;
31037;SDS011;17702;47.590;7.666;2023-06-22T06:03:36;17.60;;;10.18;;
31037;SDS011;17702;47.590;7.666;2023-06-22T06:06:06;13.80;;;9.30;;
31037;SDS011;17702;47.590;7.666;2023-06-22T06:08:32;21.95;;;10.07;;
31037;SDS011;17702;47.590;7.666;2023-06-22T06:10:58;23.50;;;13.07;;
31037;SDS011;17702;47.590;7.666;2023-06-22T06:13:24;24.30;;;11.65;;
31037;SDS011;17702;47.590;7.666;2023-06-22T06:15:49;16.13;;;11.15;;
31037;SDS011;17702;47.590;7.666;2023-06-22T06:18:20;13.88;;;10.25;;
31037;SDS011;17702;47.590;7.666;2023-06-22T06:20:46;20.30;;;11.15;;
31037;SDS011;17702;47.590;7.666;2023-06-22T06:23:11;16.90;;;10.77;;
31037;SDS011;17702;47.590;7.666;2023-06-22T06:25:37;20.17;;;11.18;;
31037;SDS011;17702;47.590;7.666;2023-06-22T06:28:03;20.75;;;11.25;;
31037;SDS011;17702;47.590;7.666;2023-06-22T06:30:28;27.15;;;13.23;;
31037;SDS011;17702;47.590;7.666;2023-06-22T06:32:54;27.30;;;15.00;;
31037;SDS011;17702;47.590;7.666;2023-06-22T06:35:20;30.38;;;15.43;;
31037;SDS011;17702;47.590;7.666;2023-06-22T06:37:47;26.35;;;16.17;;
31037;SDS011;17702;47.590;7.666;2023-06-22T06:40:15;26.92;;;15.35;;
31037;SDS011;17702;47.590;7.666;2023-06-22T06:42:44;32.95;;;16.33;;
31037;SDS011;17702;47.590;7.666;2023-06-22T06:45:11;32.00;;;17.00;;
31037;SDS011;17702;47.590;7.666;2023-06-22T06:47:41;27.55;;;16.92;;
31037;SDS011;17702;47.590;7.666;2023-06-22T06:50:07;25.23;;;16.27;;
31037;SDS011;17702;47.590;7.666;2023-06-22T06:52:33;33.10;;;17.52;;
31037;SDS011;17702;47.590;7.666;2023-06-22T06:54:59;23.00;;;16.50;;
31037;SDS011;17702;47.590;7.666;2023-06-22T06:57:25;26.35;;;17.85;;
31037;SDS011;17702;47.590;7.666;2023-06-22T06:59:57;56.10;;;50.17;;
31037;SDS011;17702;47.590;7.666;2023-06-22T07:02:23;30.05;;;16.42;;
31037;SDS011;17702;47.590;7.666;2023-06-22T07:04:49;29.20;;;17.27;;
31037;SDS011;17702;47.590;7.666;2023-06-22T07:07:15;29.50;;;18.80;;
31037;SDS011;17702;47.590;7.666;2023-06-22T07:09:41;28.33;;;18.38;;
31037;SDS011;17702;47.590;7.666;2023-06-22T07:12:07;30.50;;;19.17;;
31037;SDS011;17702;47.590;7.666;2023-06-22T07:14:33;27.35;;;16.63;;
31037;SDS011;17702;47.590;7.666;2023-06-22T07:16:58;28.42;;;16.08;;
31037;SDS011;17702;47.590;7.666;2023-06-22T07:19:24;23.90;;;15.15;;
31037;SDS011;17702;47.590;7.666;2023-06-22T07:21:51;23.38;;;14.18;;
31037;SDS011;17702;47.590;7.666;2023-06-22T07:24:18;23.13;;;14.65;;
31037;SDS011;17702;47.590;7.666;2023-06-22T07:26:45;23.67;;;13.90;;
31037;SDS011;17702;47.590;7.666;2023-06-22T07:29:11;27.83;;;13.65;;
31037;SDS011;17702;47.590;7.666;2023-06-22T07:31:37;21.70;;;13.23;;
31037;SDS011;17702;47.590;7.666;2023-06-22T07:34:05;20.42;;;12.35;;
31037;SDS011;17702;47.590;7.666;2023-06-22T07:36:30;26.95;;;11.65;;
31037;SDS011;17702;47.590;7.666;2023-06-22T07:38:56;26.67;;;12.35;;
31037;SDS011;17702;47.590;7.666;2023-06-22T07:41:21;20.45;;;11.93;;
31037;SDS011;17702;47.590;7.666;2023-06-22T07:43:47;28.50;;;13.15;;
31037;SDS011;17702;47.590;7.666;2023-06-22T07:46:13;18.85;;;11.88;;
31037;SDS011;17702;47.590;7.666;2023-06-22T07:48:39;17.73;;;10.93;;
31037;SDS011;17702;47.590;7.666;2023-06-22T07:51:06;16.70;;;10.15;;
31037;SDS011;17702;47.590;7.666;2023-06-22T07:53:32;18.92;;;9.82;;
31037;SDS011;17702;47.590;7.666;2023-06-22T07:55:57;22.90;;;10.73;;
31037;SDS011;17702;47.590;7.666;2023-06-22T07:58:23;20.02;;;10.38;;
31037;SDS011;17702;47.590;7.666;2023-06-22T08:00:49;19.27;;;10.98;;
31037;SDS011;17702;47.590;7.666;2023-06-22T08:03:14;16.40;;;11.00;;
31037;SDS011;17702;47.590;7.666;2023-06-22T08:05:40;25.80;;;14.95;;
31037;SDS011;17702;47.590;7.666;2023-06-22T08:08:06;16.83;;;10.93;;
31037;SDS011;17702;47.590;7.666;2023-06-22T08:10:31;18.65;;;9.65;;
31037;SDS011;17702;47.590;7.666;2023-06-22T08:12:57;14.68;;;9.68;;
31037;SDS011;17702;47.590;7.666;2023-06-22T08:15:23;17.50;;;10.63;;
31037;SDS011;17702;47.590;7.666;2023-06-22T08:17:50;18.05;;;10.00;;
31037;SDS011;17702;47.590;7.666;2023-06-22T08:20:17;21.00;;;9.93;;
31037;SDS011;17702;47.590;7.666;2023-06-22T08:22:43;17.63;;;9.27;;
31037;SDS011;17702;47.590;7.666;2023-06-22T08:25:09;16.42;;;10.00;;
31037;SDS011;17702;47.590;7.666;2023-06-22T08:27:35;14.85;;;9.43;;
31037;SDS011;17702;47.590;7.666;2023-06-22T08:30:01;16.20;;;10.20;;
31037;SDS011;17702;47.590;7.666;2023-06-22T08:32:28;19.20;;;8.82;;
31037;SDS011;17702;47.590;7.666;2023-06-22T08:34:54;17.20;;;9.30;;
31037;SDS011;17702;47.590;7.666;2023-06-22T08:37:21;20.33;;;11.68;;
31037;SDS011;17702;47.590;7.666;2023-06-22T08:39:49;14.02;;;8.63;;
31037;SDS011;17702;47.590;7.666;2023-06-22T08:42:15;11.88;;;8.45;;
31037;SDS011;17702;47.590;7.666;2023-06-22T08:44:41;13.43;;;7.90;;
31037;SDS011;17702;47.590;7.666;2023-06-22T08:47:06;19.50;;;7.90;;
31037;SDS011;17702;47.590;7.666;2023-06-22T08:49:32;19.73;;;9.38;;
31037;SDS011;17702;47.590;7.666;2023-06-22T08:51:58;13.50;;;7.80;;
31037;SDS011;17702;47.590;7.666;2023-06-22T08:54:23;17.80;;;7.65;;
31037;SDS011;17702;47.590;7.666;2023-06-22T08:56:49;19.90;;;7.60;;
31037;SDS011;17702;47.590;7.666;2023-06-22T08:59:15;20.92;;;8.18;;
31037;SDS011;17702;47.590;7.666;2023-06-22T09:01:40;15.75;;;8.57;;
31037;SDS011;17702;47.590;7.666;2023-06-22T09:04:10;16.63;;;7.75;;
31037;SDS011;17702;47.590;7.666;2023-06-22T09:06:36;15.85;;;7.97;;
31037;SDS011;17702;47.590;7.666;2023-06-22T09:09:06;11.38;;;6.97;;
31037;SDS011;17702;47.590;7.666;2023-06-22T09:11:32;21.88;;;8.23;;
31037;SDS011;17702;47.590;7.666;2023-06-22T09:13:57;14.52;;;7.47;;
31037;SDS011;17702;47.590;7.666;2023-06-22T09:16:23;15.48;;;7.57;;
31037;SDS011;17702;47.590;7.666;2023-06-22T09:18:48;21.45;;;8.50;;
31037;SDS011;17702;47.590;7.666;2023-06-22T09:21:14;19.10;;;7.75;;
31037;SDS011;17702;47.590;7.666;2023-06-22T09:23:40;13.52;;;7.70;;
31037;SDS011;17702;47.590;7.666;2023-06-22T09:26:05;18.90;;;8.00;;
31037;SDS011;17702;47.590;7.666;2023-06-22T09:28:31;14.07;;;8.18;;
31037;SDS011;17702;47.590;7.666;2023-06-22T09:30:58;13.93;;;6.72;;
31037;SDS011;17702;47.590;7.666;2023-06-22T09:33:25;10.90;;;7.18;;
31037;SDS011;17702;47.590;7.666;2023-06-22T09:35:51;11.10;;;7.30;;
31037;SDS011;17702;47.590;7.666;2023-06-22T09:38:17;25.08;;;11.90;;
31037;SDS011;17702;47.590;7.666;2023-06-22T09:40:43;18.42;;;8.90;;
31037;SDS011;17702;47.590;7.666;2023-06-22T09:43:08;14.20;;;8.90;;
31037;SDS011;17702;47.590;7.666;2023-06-22T09:45:34;15.52;;;8.52;;
31037;SDS011;17702;47.590;7.666;2023-06-22T09:47:59;15.40;;;8.32;;
31037;SDS011;17702;47.590;7.666;2023-06-22T09:50:25;16.10;;;7.63;;
31037;SDS011;17702;47.590;7.666;2023-06-22T09:52:51;12.23;;;7.90;;
31037;SDS011;17702;47.590;7.666;2023-06-22T09:55:20;14.35;;;7.90;;
31037;SDS011;17702;47.590;7.666;2023-06-22T09:57:46;15.27;;;7.47;;
31037;SDS011;17702;47.590;7.666;2023-06-22T10:00:11;24.75;;;8.57;;
31037;SDS011;17702;47.590;7.666;2023-06-22T10:02:39;24.08;;;8.30;;
31037;SDS011;17702;47.590;7.666;2023-06-22T10:05:05;14.40;;;7.43;;
31037;SDS011;17702;47.590;7.666;2023-06-22T10:07:31;15.18;;;7.82;;
31037;SDS011;17702;47.590;7.666;2023-06-22T10:09:56;17.05;;;7.72;;
31037;SDS011;17702;47.590;7.666;2023-06-22T10:12:22;18.88;;;7.78;;
31037;SDS011;17702;47.590;7.666;2023-06-22T10:14:47;11.05;;;7.15;;
31037;SDS011;17702;47.590;7.666;2023-06-22T10:17:13;12.43;;;7.18;;
31037;SDS011;17702;47.590;7.666;2023-06-22T10:19:39;14.02;;;8.27;;
31037;SDS011;17702;47.590;7.666;2023-06-22T10:22:06;12.55;;;7.72;;
31037;SDS011;17702;47.590;7.666;2023-06-22T10:24:32;14.73;;;8.07;;
31037;SDS011;17702;47.590;7.666;2023-06-22T10:26:57;13.75;;;8.05;;
31037;SDS011;17702;47.590;7.666;2023-06-22T10:29:23;14.68;;;7.70;;
31037;SDS011;17702;47.590;7.666;2023-06-22T10:31:48;18.88;;;7.45;;
31037;SDS011;17702;47.590;7.666;2023-06-22T10:34:14;13.93;;;8.13;;
31037;SDS011;17702;47.590;7.666;2023-06-22T10:36:40;13.18;;;8.50;;
31037;SDS011;17702;47.590;7.666;2023-06-22T10:39:06;13.48;;;7.60;;
31037;SDS011;17702;47.590;7.666;2023-06-22T10:41:32;12.23;;;7.70;;
31037;SDS011;17702;47.590;7.666;2023-06-22T10:43:57;18.13;;;7.78;;
31037;SDS011;17702;47.590;7.666;2023-06-22T10:46:26;18.23;;;7.95;;
31037;SDS011;17702;47.590;7.666;2023-06-22T10:48:52;13.60;;;7.97;;
31037;SDS011;17702;47.590;7.666;2023-06-22T10:51:20;15.43;;;8.43;;
31037;SDS011;17702;47.590;7.666;2023-06-22T10:53:45;20.65;;;8.82;;
31037;SDS011;17702;47.590;7.666;2023-06-22T10:56:11;21.55;;;8.02;;
31037;SDS011;17702;47.590;7.666;2023-06-22T10:58:37;19.45;;;7.65;;
31037;SDS011;17702;47.590;7.666;2023-06-22T11:01:02;14.50;;;8.02;;
31037;SDS011;17702;47.590;7.666;2023-06-22T11:03:28;14.68;;;7.43;;
31037;SDS011;17702;47.590;7.666;2023-06-22T11:05:54;38.65;;;34.60;;
31037;SDS011;17702;47.590;7.666;2023-06-22T11:08:19;21.50;;;11.48;;
31037;SDS011;17702;47.590;7.666;2023-06-22T11:10:45;21.52;;;9.70;;
31037;SDS011;17702;47.590;7.666;2023-06-22T11:13:11;17.90;;;9.63;;
31037;SDS011;17702;47.590;7.666;2023-06-22T11:15:36;16.60;;;7.75;;
31037;SDS011;17702;47.590;7.666;2023-06-22T11:18:02;11.85;;;7.80;;
31037;SDS011;17702;47.590;7.666;2023-06-22T11:20:30;11.60;;;7.72;;
31037;SDS011;17702;47.590;7.666;2023-06-22T11:22:56;18.55;;;9.20;;
31037;SDS011;17702;47.590;7.666;2023-06-22T11:25:21;12.07;;;8.38;;
31037;SDS011;17702;47.590;7.666;2023-06-22T11:27:47;12.88;;;7.32;;
31037;SDS011;17702;47.590;7.666;2023-06-22T11:30:12;14.73;;;7.65;;
31037;SDS011;17702;47.590;7.666;2023-06-22T11:32:38;9.90;;;7.80;;
31037;SDS011;17702;47.590;7.666;2023-06-22T11:35:04;19.35;;;8.27;;
31037;SDS011;17702;47.590;7.666;2023-06-22T11:37:29;15.02;;;8.68;;
31037;SDS011;17702;47.590;7.666;2023-06-22T11:39:55;13.82;;;8.65;;
31037;SDS011;17702;47.590;7.666;2023-06-22T11:42:21;10.95;;;8.65;;
31037;SDS011;17702;47.590;7.666;2023-06-22T11:44:48;17.85;;;9.48;;
31037;SDS011;17702;47.590;7.666;2023-06-22T11:47:14;13.85;;;8.13;;
31037;SDS011;17702;47.590;7.666;2023-06-22T11:49:39;13.35;;;8.10;;
31037;SDS011;17702;47.590;7.666;2023-06-22T11:52:06;23.25;;;9.85;;
31037;SDS011;17702;47.590;7.666;2023-06-22T11:54:31;18.30;;;8.48;;
31037;SDS011;17702;47.590;7.666;2023-06-22T11:56:57;17.40;;;8.70;;
31037;SDS011;17702;47.590;7.666;2023-06-22T11:59:23;9.93;;;7.57;;
31037;SDS011;17702;47.590;7.666;2023-06-22T12:01:48;39.55;;;27.60;;
31037;SDS011;17702;47.590;7.666;2023-06-22T12:04:16;19.55;;;9.10;;
31037;SDS011;17702;47.590;7.666;2023-06-22T12:06:41;11.13;;;8.10;;
31037;SDS011;17702;47.590;7.666;2023-06-22T12:09:08;17.10;;;8.38;;
31037;SDS011;17702;47.590;7.666;2023-06-22T12:11:34;17.60;;;8.13;;
31037;SDS011;17702;47.590;7.666;2023-06-22T12:14:00;27.83;;;9.98;;
31037;SDS011;17702;47.590;7.666;2023-06-22T12:16:30;21.48;;;10.30;;
31037;SDS011;17702;47.590;7.666;2023-06-22T12:18:55;23.17;;;10.55;;
31037;SDS011;17702;47.590;7.666;2023-06-22T12:21:21;25.10;;;10.00;;
31037;SDS011;17702;47.590;7.666;2023-06-22T12:23:47;17.23;;;10.82;;
31037;SDS011;17702;47.590;7.666;2023-06-22T12:26:12;21.00;;;10.30;;
31037;SDS011;17702;47.590;7.666;2023-06-22T12:28:38;22.95;;;10.25;;
31037;SDS011;17702;47.590;7.666;2023-06-22T12:31:03;16.38;;;9.30;;
31037;SDS011;17702;47.590;7.666;2023-06-22T12:33:29;19.95;;;10.48;;
31037;SDS011;17702;47.590;7.666;2023-06-22T12:35:55;22.92;;;11.45;;
31037;SDS011;17702;47.590;7.666;2023-06-22T12:38:21;23.92;;;10.70;;
31037;SDS011;17702;47.590;7.666;2023-06-22T12:40:47;24.58;;;11.85;;
31037;SDS011;17702;47.590;7.666;2023-06-22T12:43:14;21.50;;;10.02;;
31037;SDS011;17702;47.590;7.666;2023-06-22T12:45:40;18.77;;;9.52;;
31037;SDS011;17702;47.590;7.666;2023-06-22T12:48:05;22.80;;;9.05;;
31037;SDS011;17702;47.590;7.666;2023-06-22T12:50:31;18.38;;;7.28;;
31037;SDS011;17702;47.590;7.666;2023-06-22T12:52:57;17.55;;;7.70;;
31037;SDS011;17702;47.590;7.666;2023-06-22T12:55:22;17.50;;;7.05;;
31037;SDS011;17702;47.590;7.666;2023-06-22T12:57:48;16.55;;;7.35;;
31037;SDS011;17702;47.590;7.666;2023-06-22T13:00:14;22.55;;;8.10;;
31037;SDS011;17702;47.590;7.666;2023-06-22T13:02:40;16.08;;;7.28;;
31037;SDS011;17702;47.590;7.666;2023-06-22T13:05:06;15.32;;;7.55;;
31037;SDS011;17702;47.590;7.666;2023-06-22T13:07:31;20.23;;;6.63;;
31037;SDS011;17702;47.590;7.666;2023-06-22T13:09:57;15.57;;;6.05;;
31037;SDS011;17702;47.590;7.666;2023-06-22T13:12:23;18.02;;;6.95;;
31037;SDS011;17702;47.590;7.666;2023-06-22T13:14:48;19.45;;;8.57;;
31037;SDS011;17702;47.590;7.666;2023-06-22T13:17:14;16.23;;;7.25;;
31037;SDS011;17702;47.590;7.666;2023-06-22T13:19:40;13.32;;;6.72;;
31037;SDS011;17702;47.590;7.666;2023-06-22T13:22:49;19.45;;;7.45;;
31037;SDS011;17702;47.590;7.666;2023-06-22T13:25:04;19.50;;;6.60;;
31037;SDS011;17702;47.590;7.666;2023-06-22T13:27:37;14.90;;;6.43;;
31037;SDS011;17702;47.590;7.666;2023-06-22T13:30:04;19.70;;;7.05;;
31037;SDS011;17702;47.590;7.666;2023-06-22T13:32:30;19.80;;;7.40;;
31037;SDS011;17702;47.590;7.666;2023-06-22T13:34:55;14.63;;;7.50;;
31037;SDS011;17702;47.590;7.666;2023-06-22T13:37:21;16.63;;;7.10;;
31037;SDS011;17702;47.590;7.666;2023-06-22T13:39:47;27.75;;;7.80;;
31037;SDS011;17702;47.590;7.666;2023-06-22T13:42:12;22.23;;;7.95;;
31037;SDS011;17702;47.590;7.666;2023-06-22T13:44:38;23.48;;;12.45;;
31037;SDS011;17702;47.590;7.666;2023-06-22T13:47:03;21.58;;;13.18;;
31037;SDS011;17702;47.590;7.666;2023-06-22T13:49:30;25.67;;;9.27;;
31037;SDS011;17702;47.590;7.666;2023-06-22T13:51:55;18.10;;;8.23;;
31037;SDS011;17702;47.590;7.666;2023-06-22T13:54:21;16.88;;;8.25;;
31037;SDS011;17702;47.590;7.666;2023-06-22T13:56:46;18.27;;;7.43;;
31037;SDS011;17702;47.590;7.666;2023-06-22T13:59:12;15.27;;;6.97;;
31037;SDS011;17702;47.590;7.666;2023-06-22T14:01:38;20.88;;;7.63;;
31037;SDS011;17702;47.590;7.666;2023-06-22T14:04:05;18.15;;;7.40;;
31037;SDS011;17702;47.590;7.666;2023-06-22T14:06:30;15.35;;;7.35;;
31037;SDS011;17702;47.590;7.666;2023-06-22T14:08:56;15.25;;;7.85;;
31037;SDS011;17702;47.590;7.666;2023-06-22T14:11:22;27.90;;;8.10;;
31037;SDS011;17702;47.590;7.666;2023-06-22T14:13:47;21.48;;;8.15;;
31037;SDS011;17702;47.590;7.666;2023-06-22T14:16:13;16.98;;;8.00;;
31037;SDS011;17702;47.590;7.666;2023-06-22T14:18:38;19.33;;;8.02;;
31037;SDS011;17702;47.590;7.666;2023-06-22T14:21:04;17.30;;;7.70;;
31037;SDS011;17702;47.590;7.666;2023-06-22T14:23:29;17.67;;;7.35;;
31037;SDS011;17702;47.590;7.666;2023-06-22T14:25:55;20.83;;;8.73;;
31037;SDS011;17702;47.590;7.666;2023-06-22T14:28:21;14.70;;;7.57;;
31037;SDS011;17702;47.590;7.666;2023-06-22T14:30:46;16.45;;;8.52;;
31037;SDS011;17702;47.590;7.666;2023-06-22T14:33:12;15.60;;;7.38;;